createdAt,value
2018-05-09T00:01:52.195Z,15.78
2018-05-09T00:04:20.577Z,15.64
2018-05-09T00:06:49.310Z,15.47
2018-05-09T00:09:17.668Z,15.51
2018-05-09T00:11:46.055Z,15.55
2018-05-09T00:14:14.387Z,15.55
2018-05-09T00:16:43.481Z,15.58
2018-05-09T00:19:11.844Z,15.58
2018-05-09T00:21:40.937Z,15.49
2018-05-09T00:24:09.693Z,15.43
2018-05-09T00:26:38.024Z,15.40
2018-05-09T00:29:07.525Z,15.31
2018-05-09T00:31:36.636Z,15.31
2018-05-09T00:34:05.765Z,15.32
2018-05-09T00:36:34.091Z,15.24
2018-05-09T00:39:03.204Z,15.30
2018-05-09T00:41:31.521Z,15.30
2018-05-09T00:43:59.876Z,15.41
2018-05-09T00:46:29.011Z,15.33
2018-05-09T00:48:58.140Z,15.35
2018-05-09T00:51:26.468Z,15.36
2018-05-09T00:56:57.260Z,15.25
2018-05-09T00:59:25.624Z,15.17
2018-05-09T01:01:54.707Z,15.13
2018-05-09T01:04:23.853Z,15.24
2018-05-09T01:06:52.193Z,15.08
2018-05-09T01:09:21.297Z,14.93
2018-05-09T01:11:49.729Z,14.75
2018-05-09T01:14:18.053Z,14.64
2018-05-09T01:16:46.468Z,14.65
2018-05-09T01:19:14.844Z,14.60
2018-05-09T01:21:43.165Z,14.75
2018-05-09T01:24:12.302Z,14.74
2018-05-09T01:26:40.628Z,14.77
2018-05-09T01:29:08.960Z,14.87
2018-05-09T01:31:37.324Z,14.76
2018-05-09T01:34:05.646Z,14.79
2018-05-09T01:36:34.008Z,14.85
2018-05-09T01:39:02.362Z,14.83
2018-05-09T01:41:30.676Z,14.81
2018-05-09T01:43:59.044Z,14.78
2018-05-09T01:46:27.393Z,14.68
2018-05-09T01:48:55.727Z,14.65
2018-05-09T01:51:24.097Z,14.68
2018-05-09T01:53:52.430Z,14.76
2018-05-09T01:56:20.800Z,14.68
2018-05-09T01:58:49.167Z,14.64
2018-05-09T02:01:17.531Z,14.62
2018-05-09T02:03:46.688Z,14.55
2018-05-09T02:06:15.063Z,14.42
2018-05-09T02:08:43.412Z,14.31
2018-05-09T02:11:11.766Z,14.36
2018-05-09T02:13:40.134Z,14.47
2018-05-09T02:16:09.310Z,14.46
2018-05-09T02:18:37.686Z,14.51
2018-05-09T02:21:06.047Z,14.62
2018-05-09T02:23:34.390Z,14.62
2018-05-09T02:26:02.754Z,14.68
2018-05-09T02:28:31.864Z,14.69
2018-05-09T02:31:00.188Z,14.70
2018-05-09T02:33:28.551Z,14.55
2018-05-09T02:35:56.893Z,14.45
2018-05-09T02:38:25.268Z,14.44
2018-05-09T02:40:53.605Z,14.43
2018-05-09T02:43:21.959Z,14.42
2018-05-09T02:45:50.321Z,14.43
2018-05-09T02:48:18.647Z,14.41
2018-05-09T02:50:47.063Z,14.29
2018-05-09T02:53:15.417Z,14.23
2018-05-09T02:55:44.887Z,14.32
2018-05-09T02:58:13.254Z,14.36
2018-05-09T03:00:41.981Z,14.29
2018-05-09T03:03:11.208Z,14.28
2018-05-09T03:05:39.537Z,14.19
2018-05-09T03:08:07.881Z,14.16
2018-05-09T03:10:36.248Z,14.18
2018-05-09T03:13:05.199Z,14.08
2018-05-09T03:15:33.576Z,13.88
2018-05-09T03:18:01.990Z,13.78
2018-05-09T03:20:30.360Z,13.81
2018-05-09T03:22:59.451Z,13.88
2018-05-09T03:25:28.546Z,13.84
2018-05-09T03:27:57.635Z,13.81
2018-05-09T03:30:27.119Z,13.77
2018-05-09T03:32:55.445Z,13.69
2018-05-09T03:35:23.785Z,13.71
2018-05-09T03:37:52.866Z,13.70
2018-05-09T03:40:21.203Z,13.74
2018-05-09T03:42:49.545Z,13.83
2018-05-09T03:45:18.679Z,13.76
2018-05-09T03:47:46.982Z,13.72
2018-05-09T03:50:15.349Z,13.71
2018-05-09T03:52:44.114Z,13.78
2018-05-09T03:55:12.543Z,13.86
2018-05-09T03:57:40.851Z,13.91
2018-05-09T04:00:09.219Z,14.00
2018-05-09T04:02:55.988Z,14.04
2018-05-09T04:05:41.972Z,14.06
2018-05-09T04:08:27.950Z,14.16
2018-05-09T04:10:56.290Z,14.16
2018-05-09T04:13:25.418Z,14.19
2018-05-09T04:15:53.719Z,14.21
2018-05-09T04:18:22.103Z,14.27
2018-05-09T04:20:51.453Z,14.36
2018-05-09T04:23:20.230Z,14.40
2018-05-09T04:25:49.689Z,14.47
2018-05-09T04:28:18.463Z,14.48
2018-05-09T04:30:46.816Z,14.52
2018-05-09T04:33:15.160Z,14.58
2018-05-09T04:35:44.287Z,14.67
2018-05-09T04:38:12.656Z,14.75
2018-05-09T04:40:40.994Z,14.82
2018-05-09T04:43:09.374Z,14.90
2018-05-09T04:45:37.778Z,15.07
2018-05-09T04:48:06.886Z,15.16
2018-05-09T04:50:35.215Z,15.25
2018-05-09T04:53:03.582Z,15.30
2018-05-09T04:55:31.924Z,15.48
2018-05-09T04:58:01.017Z,15.47
2018-05-09T05:00:29.340Z,15.65
2018-05-09T05:02:57.704Z,15.79
2018-05-09T05:05:26.026Z,15.89
2018-05-09T05:07:55.142Z,16.03
2018-05-09T05:10:23.745Z,16.17
2018-05-09T05:12:52.118Z,16.24
2018-05-09T05:15:20.458Z,16.22
2018-05-09T05:17:49.586Z,16.35
2018-05-09T05:20:17.929Z,16.43
2018-05-09T05:22:47.018Z,16.66
2018-05-09T05:25:15.387Z,17.00
2018-05-09T05:27:43.781Z,17.02
2018-05-09T05:30:12.878Z,17.09
2018-05-09T05:32:42.032Z,17.24
2018-05-09T05:35:10.390Z,17.11
2018-05-09T05:37:38.765Z,17.03
2018-05-09T05:40:07.075Z,17.17
2018-05-09T05:42:35.382Z,17.38
2018-05-09T05:45:04.916Z,17.38
2018-05-09T05:47:33.225Z,17.49
2018-05-09T05:50:01.555Z,17.48
2018-05-09T05:52:29.911Z,17.51
2018-05-09T05:54:58.639Z,17.53
2018-05-09T05:57:26.972Z,17.58
2018-05-09T05:59:55.318Z,17.40
2018-05-09T06:02:23.643Z,17.51
2018-05-09T06:04:52.814Z,17.69
2018-05-09T06:07:21.931Z,17.86
2018-05-09T06:09:51.055Z,17.72
2018-05-09T06:12:19.405Z,17.62
2018-05-09T06:14:49.114Z,17.69
2018-05-09T06:17:17.436Z,17.95
2018-05-09T06:19:46.551Z,18.27
2018-05-09T06:22:14.906Z,18.54
2018-05-09T06:24:43.227Z,18.70
2018-05-09T06:27:11.551Z,18.49
2018-05-09T06:29:39.909Z,18.75
2018-05-09T06:32:08.990Z,18.74
2018-05-09T06:34:38.682Z,18.99
2018-05-09T06:37:07.013Z,18.96
2018-05-09T06:39:35.362Z,18.84
2018-05-09T06:42:04.442Z,18.99
2018-05-09T06:44:33.584Z,19.23
2018-05-09T06:47:01.941Z,19.46
2018-05-09T06:49:30.310Z,19.45
2018-05-09T06:51:59.785Z,19.31
2018-05-09T06:54:28.106Z,19.17
2018-05-09T06:56:56.470Z,19.45
2018-05-09T06:59:25.558Z,19.32
2018-05-09T07:01:54.666Z,19.38
2018-05-09T07:04:23.006Z,19.51
2018-05-09T07:06:51.359Z,19.71
2018-05-09T07:09:19.712Z,19.90
2018-05-09T07:11:48.074Z,19.93
2018-05-09T07:14:17.192Z,20.00
2018-05-09T07:16:46.302Z,19.89
2018-05-09T07:19:15.417Z,20.07
2018-05-09T07:21:43.961Z,20.14
2018-05-09T07:24:12.306Z,20.27
2018-05-09T07:26:41.044Z,20.39
2018-05-09T07:29:10.411Z,20.57
2018-05-09T07:31:41.320Z,20.72
2018-05-09T07:34:09.660Z,20.70
2018-05-09T07:36:38.445Z,20.70
2018-05-09T07:39:12.753Z,20.93
2018-05-09T07:41:42.137Z,21.04
2018-05-09T07:44:10.533Z,21.12
2018-05-09T07:46:39.237Z,21.17
2018-05-09T07:49:09.911Z,21.03
2018-05-09T07:51:39.004Z,21.06
2018-05-09T07:54:08.886Z,21.21
2018-05-09T07:56:38.292Z,21.25
2018-05-09T07:59:07.857Z,21.35
2018-05-09T08:01:39.460Z,21.19
2018-05-09T08:04:08.608Z,21.38
2018-05-09T08:06:37.781Z,21.43
2018-05-09T08:09:06.881Z,21.46
2018-05-09T08:11:35.663Z,21.61
2018-05-09T08:14:04.014Z,21.70
2018-05-09T08:16:33.211Z,21.56
2018-05-09T08:19:01.534Z,21.51
2018-05-09T08:21:29.854Z,21.61
2018-05-09T08:23:58.202Z,21.98
2018-05-09T08:26:26.510Z,22.40
2018-05-09T08:28:54.978Z,22.90
2018-05-09T08:31:24.264Z,23.11
2018-05-09T08:33:53.290Z,23.43
2018-05-09T08:36:21.601Z,23.31
2018-05-09T08:38:50.775Z,23.10
2018-05-09T08:41:19.132Z,22.80
2018-05-09T08:43:47.506Z,22.68
2018-05-09T08:46:15.983Z,22.96
2018-05-09T08:48:44.347Z,23.55
2018-05-09T08:51:12.665Z,23.99
2018-05-09T08:53:41.994Z,24.92
2018-05-09T08:56:10.386Z,25.69
2018-05-09T08:58:38.722Z,24.67
2018-05-09T09:01:09.574Z,24.53
2018-05-09T09:03:38.958Z,24.53
2018-05-09T09:06:07.335Z,24.23
2018-05-09T09:08:35.664Z,24.03
2018-05-09T09:11:07.605Z,23.87
2018-05-09T09:13:35.918Z,25.01
2018-05-09T09:16:04.277Z,25.13
2018-05-09T09:18:32.673Z,24.48
2018-05-09T09:21:00.999Z,23.35
2018-05-09T09:23:29.355Z,23.34
2018-05-09T09:25:57.683Z,23.94
2018-05-09T09:28:26.038Z,24.84
2018-05-09T09:30:54.752Z,25.09
2018-05-09T09:33:24.481Z,25.51
2018-05-09T09:35:53.104Z,24.45
2018-05-09T09:38:21.822Z,24.94
2018-05-09T09:40:50.561Z,25.28
2018-05-09T09:43:19.313Z,24.93
2018-05-09T09:45:47.610Z,25.30
2018-05-09T09:48:16.349Z,26.06
2018-05-09T09:50:45.641Z,27.07
2018-05-09T09:53:13.949Z,25.16
2018-05-09T09:55:42.266Z,26.12
2018-05-09T09:58:11.557Z,26.92
2018-05-09T10:00:41.314Z,27.54
2018-05-09T10:03:10.431Z,25.07
2018-05-09T10:05:38.762Z,25.47
2018-05-09T10:08:07.199Z,25.95
2018-05-09T10:10:35.569Z,25.07
2018-05-09T10:13:03.885Z,23.79
2018-05-09T10:15:33.016Z,24.32
2018-05-09T10:18:01.357Z,24.94
2018-05-09T10:20:29.701Z,24.75
2018-05-09T10:22:58.054Z,24.63
2018-05-09T10:25:26.381Z,24.56
2018-05-09T10:27:54.775Z,24.42
2018-05-09T10:30:25.053Z,24.28
2018-05-09T10:32:53.411Z,24.48
2018-05-09T10:35:21.781Z,24.04
2018-05-09T10:37:50.971Z,24.02
2018-05-09T10:40:20.074Z,23.92
2018-05-09T10:42:48.505Z,24.00
2018-05-09T10:45:18.709Z,24.27
2018-05-09T10:47:48.554Z,24.76
2018-05-09T10:50:17.996Z,24.37
2018-05-09T10:52:46.373Z,24.75
2018-05-09T10:55:14.759Z,24.53
2018-05-09T10:57:43.135Z,24.78
2018-05-09T11:00:11.452Z,24.88
2018-05-09T11:02:39.797Z,24.62
2018-05-09T11:05:08.217Z,25.09
2018-05-09T11:07:37.258Z,25.54
2018-05-09T11:10:05.664Z,25.63
2018-05-09T11:12:34.008Z,25.94
2018-05-09T11:15:03.147Z,25.47
2018-05-09T11:17:31.469Z,25.44
2018-05-09T11:20:01.523Z,25.70
2018-05-09T11:22:29.896Z,26.08
2018-05-09T11:24:58.241Z,26.49
2018-05-09T11:27:28.224Z,27.66
2018-05-09T11:29:56.964Z,26.77
2018-05-09T11:32:25.294Z,27.10
2018-05-09T11:34:53.692Z,26.56
2018-05-09T11:37:22.404Z,26.44
2018-05-09T11:39:51.492Z,27.47
2018-05-09T11:42:20.025Z,26.70
2018-05-09T11:44:48.440Z,27.43
2018-05-09T11:47:16.860Z,27.93
2018-05-09T11:49:45.216Z,26.23
2018-05-09T11:52:13.542Z,25.91
2018-05-09T11:54:41.895Z,26.13
2018-05-09T11:57:10.224Z,26.82
2018-05-09T11:59:39.356Z,26.82
2018-05-09T12:02:07.748Z,26.82
2018-05-09T12:04:36.083Z,27.61
2018-05-09T12:07:06.240Z,27.11
2018-05-09T12:09:34.599Z,26.19
2018-05-09T12:12:02.956Z,25.45
2018-05-09T12:14:32.140Z,25.72
2018-05-09T12:17:01.820Z,26.14
2018-05-09T12:19:30.733Z,25.56
2018-05-09T12:21:59.054Z,26.35
2018-05-09T12:24:27.388Z,26.81
2018-05-09T12:26:55.756Z,26.68
2018-05-09T12:29:24.114Z,27.06
2018-05-09T12:31:52.443Z,27.32
2018-05-09T12:34:21.578Z,27.02
2018-05-09T12:36:49.905Z,26.01
2018-05-09T12:39:18.276Z,25.86
2018-05-09T12:41:47.428Z,25.58
2018-05-09T12:44:15.771Z,25.39
2018-05-09T12:46:46.104Z,25.22
2018-05-09T12:49:15.299Z,25.10
2018-05-09T12:51:44.424Z,25.22
2018-05-09T12:54:12.725Z,24.99
2018-05-09T12:56:41.088Z,24.62
2018-05-09T12:59:09.480Z,25.02
2018-05-09T13:01:39.582Z,24.86
2018-05-09T13:04:08.438Z,24.92
2018-05-09T13:06:36.738Z,24.83
2018-05-09T13:09:05.143Z,24.58
2018-05-09T13:11:35.635Z,24.69
2018-05-09T13:14:04.175Z,24.83
2018-05-09T13:16:33.372Z,24.88
2018-05-09T13:19:02.491Z,24.97
2018-05-09T13:21:31.590Z,25.28
2018-05-09T13:24:00.711Z,25.38
2018-05-09T13:26:29.107Z,25.31
2018-05-09T13:29:00.240Z,25.34
2018-05-09T13:31:28.707Z,25.37
2018-05-09T13:33:57.057Z,25.46
2018-05-09T13:36:26.201Z,25.69
2018-05-09T13:38:55.566Z,26.06
2018-05-09T13:41:23.907Z,25.96
2018-05-09T13:43:52.269Z,26.02
2018-05-09T13:46:21.345Z,26.02
2018-05-09T13:48:49.657Z,25.80
2018-05-09T13:51:17.982Z,25.60
2018-05-09T13:53:46.924Z,25.28
2018-05-09T13:56:15.252Z,25.31
2018-05-09T13:58:43.639Z,25.29
2018-05-09T14:01:12.780Z,25.42
2018-05-09T14:03:41.846Z,25.49
2018-05-09T14:06:10.587Z,25.18
2018-05-09T14:08:40.474Z,24.77
2018-05-09T14:11:09.827Z,24.49
2018-05-09T14:13:41.113Z,24.45
2018-05-09T14:16:11.483Z,24.32
2018-05-09T14:18:39.808Z,24.41
2018-05-09T14:21:09.227Z,24.91
2018-05-09T14:23:38.507Z,25.09
2018-05-09T14:26:06.966Z,25.23
2018-05-09T14:28:36.658Z,25.36
2018-05-09T14:31:05.015Z,25.24
2018-05-09T14:33:34.983Z,25.36
2018-05-09T14:36:04.401Z,24.90
2018-05-09T14:38:33.534Z,25.00
2018-05-09T14:41:02.623Z,25.14
2018-05-09T14:43:32.692Z,24.98
2018-05-09T14:46:01.094Z,25.42
2018-05-09T14:48:29.471Z,25.54
2018-05-09T14:50:57.859Z,25.63
2018-05-09T14:53:26.239Z,25.57
2018-05-09T14:55:54.610Z,25.48
2018-05-09T14:58:23.791Z,25.48
2018-05-09T15:00:52.146Z,25.56
2018-05-09T15:03:20.486Z,25.33
2018-05-09T15:05:49.619Z,25.12
2018-05-09T15:08:17.935Z,25.36
2018-05-09T15:10:46.300Z,25.35
2018-05-09T15:13:14.686Z,25.61
2018-05-09T15:15:44.507Z,26.01
2018-05-09T15:18:12.954Z,25.66
2018-05-09T15:20:41.278Z,25.87
2018-05-09T15:23:10.354Z,25.44
2018-05-09T15:25:38.715Z,24.93
2018-05-09T15:28:07.140Z,24.88
2018-05-09T15:30:37.120Z,25.03
2018-05-09T15:33:07.326Z,25.05
2018-05-09T15:35:35.938Z,25.28
2018-05-09T15:38:04.295Z,25.66
2018-05-09T15:40:32.626Z,25.55
2018-05-09T15:43:00.974Z,25.34
2018-05-09T15:45:31.076Z,25.27
2018-05-09T15:47:59.950Z,25.34
2018-05-09T15:50:28.350Z,26.10
2018-05-09T15:52:57.552Z,25.85
2018-05-09T15:55:26.008Z,25.53
2018-05-09T15:57:54.928Z,25.84
2018-05-09T16:00:23.341Z,25.73
2018-05-09T16:02:52.420Z,25.70
2018-05-09T16:05:24.534Z,26.00
2018-05-09T16:07:53.322Z,26.15
2018-05-09T16:10:22.243Z,26.68
2018-05-09T16:12:51.946Z,26.56
2018-05-09T16:15:20.552Z,26.69
2018-05-09T16:17:49.702Z,26.78
2018-05-09T16:20:18.222Z,27.31
2018-05-09T16:22:46.952Z,27.86
2018-05-09T16:25:16.075Z,28.05
2018-05-09T16:27:44.455Z,27.71
2018-05-09T16:30:12.814Z,27.76
2018-05-09T16:32:41.211Z,27.83
2018-05-09T16:35:09.948Z,27.88
2018-05-09T16:37:40.336Z,27.74
2018-05-09T16:40:09.209Z,27.54
2018-05-09T16:42:37.595Z,27.55
2018-05-09T16:45:06.144Z,27.40
2018-05-09T16:47:34.629Z,27.18
2018-05-09T16:50:02.940Z,26.67
2018-05-09T16:52:31.448Z,26.34
2018-05-09T16:55:01.543Z,26.40
2018-05-09T16:57:30.303Z,26.44
2018-05-09T16:59:59.281Z,26.51
2018-05-09T17:02:28.350Z,26.20
2018-05-09T17:04:57.291Z,26.27
2018-05-09T17:07:25.667Z,26.49
2018-05-09T17:09:54.629Z,26.33
2018-05-09T17:12:22.998Z,26.31
2018-05-09T17:14:52.630Z,26.05
2018-05-09T17:17:21.195Z,26.00
2018-05-09T17:19:50.636Z,25.87
2018-05-09T17:22:34.925Z,25.80
2018-05-09T17:25:04.046Z,25.62
2018-05-09T17:27:41.523Z,25.54
2018-05-09T17:30:11.388Z,25.53
2018-05-09T17:32:39.828Z,25.43
2018-05-09T17:35:09.064Z,25.27
2018-05-09T17:37:38.800Z,25.14
2018-05-09T17:40:07.501Z,24.88
2018-05-09T17:42:35.986Z,24.57
2018-05-09T17:45:05.241Z,24.44
2018-05-09T17:47:34.549Z,24.28
2018-05-09T17:50:03.066Z,24.06
2018-05-09T17:52:32.358Z,23.85
2018-05-09T17:55:02.473Z,23.67
2018-05-09T17:57:31.984Z,23.44
2018-05-09T18:00:01.374Z,23.32
2018-05-09T18:02:30.836Z,23.19
2018-05-09T18:04:59.504Z,23.05
2018-05-09T18:07:28.790Z,22.95
2018-05-09T18:09:57.546Z,22.75
2018-05-09T18:12:26.027Z,22.62
2018-05-09T18:14:55.279Z,22.60
2018-05-09T18:17:24.772Z,22.53
2018-05-09T18:19:53.991Z,22.41
2018-05-09T18:22:22.487Z,22.54
2018-05-09T18:24:53.284Z,22.48
2018-05-09T18:27:22.684Z,22.17
2018-05-09T18:29:53.665Z,21.89
2018-05-09T18:32:34.664Z,21.78
2018-05-09T18:35:03.972Z,21.64
2018-05-09T18:37:35.592Z,21.64
2018-05-09T18:40:04.142Z,21.64
2018-05-09T18:42:32.495Z,21.57
2018-05-09T18:45:03.830Z,21.71
2018-05-09T18:47:34.984Z,21.60
2018-05-09T18:50:03.673Z,21.62
2018-05-09T18:52:34.568Z,21.72
2018-05-09T18:55:04.103Z,21.76
2018-05-09T18:57:34.807Z,21.66
2018-05-09T19:00:03.518Z,21.57
2018-05-09T19:02:37.184Z,21.55
2018-05-09T19:05:05.898Z,21.38
2018-05-09T19:07:35.335Z,21.43
2018-05-09T19:10:03.775Z,21.27
2018-05-09T19:12:32.391Z,21.27
2018-05-09T19:15:01.545Z,21.09
2018-05-09T19:17:29.868Z,21.12
2018-05-09T19:19:58.290Z,21.18
2018-05-09T19:22:26.769Z,21.10
2018-05-09T19:24:55.097Z,21.12
2018-05-09T19:27:24.297Z,20.92
2018-05-09T19:29:53.056Z,20.75
2018-05-09T19:32:22.245Z,20.63
2018-05-09T19:34:51.318Z,20.83
2018-05-09T19:37:20.692Z,20.71
2018-05-09T19:39:49.531Z,20.59
2018-05-09T19:42:18.379Z,20.62
2018-05-09T19:44:46.827Z,20.59
2018-05-09T19:47:15.925Z,20.44
2018-05-09T19:49:45.063Z,20.38
2018-05-09T19:52:14.932Z,20.39
2018-05-09T19:54:44.058Z,20.36
2018-05-09T19:57:12.388Z,20.44
2018-05-09T19:59:41.484Z,20.58
2018-05-09T20:02:09.906Z,20.52
2018-05-09T20:04:38.228Z,20.39
2018-05-09T20:07:06.567Z,20.33
2018-05-09T20:09:35.025Z,20.23
2018-05-09T20:12:04.132Z,20.18
2018-05-09T20:14:32.480Z,20.12
2018-05-09T20:17:01.579Z,20.06
2018-05-09T20:19:29.927Z,20.01
2018-05-09T20:21:58.298Z,19.97
2018-05-09T20:24:26.682Z,20.00
2018-05-09T20:26:55.818Z,20.09
2018-05-09T20:29:24.179Z,20.09
2018-05-09T20:32:10.928Z,20.09
2018-05-09T20:34:39.313Z,20.10
2018-05-09T20:37:07.676Z,20.10
2018-05-09T20:39:36.068Z,20.13
2018-05-09T20:42:04.494Z,20.13
2018-05-09T20:44:32.818Z,20.12
2018-05-09T20:47:01.927Z,20.12
2018-05-09T20:49:30.260Z,20.14
2018-05-09T20:51:59.004Z,20.12
2018-05-09T20:54:27.385Z,20.04
2018-05-09T20:56:55.731Z,19.93
2018-05-09T20:59:24.053Z,19.83
2018-05-09T21:01:52.415Z,19.73
2018-05-09T21:04:20.754Z,19.63
2018-05-09T21:06:49.442Z,19.60
2018-05-09T21:09:17.983Z,19.56
2018-05-09T21:14:45.984Z,19.49
2018-05-09T21:17:16.062Z,19.46
2018-05-09T21:19:44.379Z,19.43
2018-05-09T21:22:13.488Z,19.39
2018-05-09T21:24:42.581Z,19.32
2018-05-09T21:27:10.955Z,19.24
2018-05-09T21:29:39.321Z,19.19
2018-05-09T21:32:08.410Z,19.14
2018-05-09T21:34:36.754Z,19.10
2018-05-09T21:37:05.123Z,19.07
2018-05-09T21:39:33.470Z,19.02
2018-05-09T21:42:01.808Z,18.97
2018-05-09T21:44:30.140Z,18.94
2018-05-09T21:46:58.478Z,18.91
2018-05-09T21:49:26.843Z,18.88
2018-05-09T21:51:55.181Z,18.89
2018-05-09T21:54:23.543Z,18.90
2018-05-09T21:56:51.907Z,18.85
2018-05-09T21:59:21.594Z,18.83
2018-05-09T22:01:49.965Z,18.80
2018-05-09T22:04:18.301Z,18.76
2018-05-09T22:06:46.677Z,18.74
2018-05-09T22:09:14.985Z,18.70
2018-05-09T22:11:43.333Z,18.66
2018-05-09T22:14:11.645Z,18.63
2018-05-09T22:16:39.990Z,18.61
2018-05-09T22:19:08.317Z,18.57
2018-05-09T22:21:36.620Z,18.56
2018-05-09T22:24:04.994Z,18.55
2018-05-09T22:26:33.373Z,18.54
2018-05-09T22:29:01.713Z,18.54
2018-05-09T22:31:30.048Z,18.55
2018-05-09T22:33:58.371Z,18.52
2018-05-09T22:36:26.713Z,18.48
2018-05-09T22:38:55.026Z,18.41
2018-05-09T22:41:23.375Z,18.37
2018-05-09T22:43:51.780Z,18.39
2018-05-09T22:46:20.219Z,18.39
2018-05-09T22:48:48.600Z,18.34
2018-05-09T22:51:16.934Z,18.36
2018-05-09T22:53:46.078Z,18.39
2018-05-09T22:56:14.418Z,18.39
2018-05-09T22:58:43.554Z,18.40
2018-05-09T23:01:11.898Z,18.38
2018-05-09T23:03:40.246Z,18.42
2018-05-09T23:06:09.353Z,18.41
2018-05-09T23:08:38.492Z,18.41
2018-05-09T23:11:06.838Z,18.39
2018-05-09T23:13:35.201Z,18.36
2018-05-09T23:16:04.301Z,18.35
2018-05-09T23:18:33.396Z,18.43
2018-05-09T23:21:02.509Z,18.44
2018-05-09T23:23:30.872Z,18.47
2018-05-09T23:26:00.695Z,18.47
2018-05-09T23:28:29.822Z,18.44
2018-05-09T23:30:59.305Z,18.42
2018-05-09T23:33:27.656Z,18.44
2018-05-09T23:35:56.741Z,18.42
2018-05-09T23:38:25.077Z,18.36
2018-05-09T23:40:53.441Z,18.35
2018-05-09T23:43:21.776Z,18.32
2018-05-09T23:45:50.908Z,18.32
2018-05-09T23:48:19.285Z,18.33
2018-05-09T23:50:47.602Z,18.33
2018-05-09T23:53:16.029Z,18.32
2018-05-09T23:55:44.394Z,18.35
2018-05-09T23:58:12.690Z,18.33
